Main page
METAR-TAF:

METAR-TAF

Airports :

Memphis International Airport

Memphis, Tennessee, United States

latitude: 35-03-40N, longitude: 089-59-06W, elevation: 331 ft

Current weather observation

The report was made 1 hour and 15 minutes ago, at 06:54 UTC
Wind 3 mph from the South/Southwest
Temperature 66°F
Humidity 73%
Pressure 29.95 in. Hg
Visibility: 10 miles
Clear sky

METAR: KMEM 130654Z 21003KT 10SM CLR 19/14 A2995 RMK AO2 SLP136 T01940139

Time: 03:09 (08:09 UTC)

Forecast

The report was made 2 hours and 49 minutes ago, at 05:20 UTC
Forecast valid from 13 at 06 UTC to 14 at 12 UTC
Wind 3 mph from the South/Southeast
Visibility: 6 miles
Clear sky

TAF: KMEM 130520Z 1306/1412 15003KT P6SM SKC

Weather observations and forecasts of more than 4000 airports (METAR and TAF reports).

The available stations are represented by yellow and red dots on the map.

Hover mouse over dot to see the name of the station.

Then click to see weather observations and forecasts.

To change the map : click on the green buttons with a black cross to zoom in, on the green button with a dash to zoom out, or on the green arrows for adjacent maps.


METAR-TAF: